Frontier A20N at Colorado Springs on Oct 28th 2019, overran runway on landing

Last Update: October 29, 2019 / 00:01:13 GMT/Zulu time

Bookmark this article
Incident Facts

Date of incident
Oct 28, 2019

Classification
Incident

Flight number
F9-2822

Aircraft Registration
N304FR

Aircraft Type
Airbus A320-200N

ICAO Type Designator
A20N

Airport ICAO Code
KCOS

A Frontier Airbus A320-200N, registration N304FR performing flight F9-2822 from Phoenix,AZ to Colorado Springs,CO (USA), landed on Colorado Springs' runway 17L but overran the end of the runway and came to a stop with all gear on the paved surface of the runway end safety area about 40 meters past the end of the runway. There were no injuries and no damage.

The runway was closed for two hours until the aircraft had been towed to the apron.

Related NOTAMs:
!COS 10/240 COS RWY 17L/35R CLSD 1910281553-1910281645
!COS 10/242 COS RWY 17L/35R CLSD 1910281632-1910281830

Metars:
KCOS 281701Z 13007KT 1/2SM R17L/4500VP6000FT -SN FZFG BKN015 OVC022 M08/M11 A2999 RMK AO2 P0000 T10831106=
KCOS 281654Z 15007KT 1/4SM R17L/4000V5500FT -SN BR BKN015 OVC022 M08/M11 A2999 RMK AO2 SFC VIS 3/4 SLP223 P0004 T10831106=
KCOS 281554Z 08003KT 1/4SM R17L/3500V4000FT SN VV012 M08/M11 A2999 RMK AO2 SFC VIS 1/2 SLP224 P0002 T10831111=
KCOS 281454Z 06004KT 1/4SM R17L/2400V3000FT SN VV010 M09/M12 A2998 RMK AO2 SFC VIS 1/2 SLP220 P0005 60008 T10891117 55008=
KCOS 281422Z VRB03KT 1/4SM R17L/3500V4000FT +SN VV013 M09/M12 A2998 RMK AO2 TWR VIS 1/2 P0001 T10891117=
KCOS 281354Z 00000KT 3/4SM R17L/P6000FT -SN OVC029 M09/M12 A2997 RMK AO2 TWR VIS 1 SLP217 P0001 T10941122 $=
KCOS 281341Z 02003KT 3/4SM R17L/P6000FT -SN OVC039 M09/M12 A2996 RMK AO2 TWR VIS 1 P0001 T10941122 $=
KCOS 281326Z 00000KT 1 1/2SM -SN BR BKN055 OVC070 M09/M12 A2997 RMK AO2 P0001 T10941117 $=
KCOS 281301Z 10007KT 3/4SM R17L/P6000FT -SN BR BKN040 OVC070 M09/M12 A2996 RMK AO2 SFC VIS 1 P0000 T10941117 $=
KCOS 281254Z 11011KT 3/4SM R17L/P6000FT -SN BR VV013 M09/M12 A2996 RMK AO2 SLP210 P0002 T10941117=
KCOS 281154Z 03005KT 3/4SM R17L/P6000FT -SN BR VV013 M09/M11 A3001 RMK AO2 SLP223 SNINCR 1/5 4/005 P0001 60012 70017 T10891111 11067 21089 56009=
KCOS 281054Z 02004KT 3/4SM R17L/P6000FT -SN BR VV014 M08/M11 A3001 RMK AO2 SLP223 SNINCR 1/4 P0003 T10831106=
Aircraft Registration Data New!
Registration mark
N304FR
Country of Registration
United States
Date of Registration
Dqgc ciippjbmnfkg Subscribe to unlock
Manufacturer
AIRBUS
Aircraft Model / Type
A320-251N
Number of Seats
ICAO Aircraft Type
A20N
Year of Manufacture
Serial Number
Aircraft Address / Mode S Code (HEX)
Engine Count
Engine Manufacturer
Engine Model
Engine Type
Pounds of Thrust
Main Owner
Jjip qmhempbmbhAcnghfijhjhbgkpbqdhAglqngcecchiAAmbkgjilnn mbnfccniklm pb Anemgqqcpnihicnpdblmkmdgjk dikfdd fl Subscribe to unlock
Incident Facts

Date of incident
Oct 28, 2019

Classification
Incident

Flight number
F9-2822

Aircraft Registration
N304FR

Aircraft Type
Airbus A320-200N

ICAO Type Designator
A20N

Airport ICAO Code
KCOS

This article is published under license from Avherald.com. © of text by Avherald.com.
Article source

You can read 4 more free articles without a subscription.

Subscribe now and continue reading without any limits!

Are you a subscriber?
Login
Subscribe

Read unlimited articles and receive our daily update briefing. Gain better insights into what is happening in commercial aviation safety.

Free newsletter

Want to know more and stay ahead? Get our free weekly newsletter and join 4941 existing subscribers.

By subscribing, you accept our terms and conditions and confirm that you've read our privacy policy.

Send tip

Support AeroInside by sending a small tip amount.

Related articles

Newest articles

Subscribe today

Are you researching aviation incidents? Get access to AeroInside Insights, unlimited read access and receive the daily newsletter.

Pick your plan and subscribe

Partner

Blockaviation logo

A new way to document and demonstrate airworthiness compliance and aircraft value. Find out more.

Virtual Speech logo

ELITE Simulation Solutions is a leading global provider of Flight Simulation Training Devices, IFR training software as well as flight controls and related services. Find out more.

Get updates

Never miss an article from AeroInside. Subscribe to our free weekly newsletter and join 4941 existing subscribers.

By subscribing, you accept our terms and conditions and that you've read our privacy policy.

AeroInside Blog
Popular aircraft
Airbus A320
Boeing 737-800
Boeing 737-800 MAX
Popular airlines
American Airlines
United
Delta
Air Canada
Lufthansa
British Airways